METAR Data
IDs: Format: Raw Decoded Include TAF

Data at: 0957 UTC 22 Oct 2018

PAOH 220856Z AUTO 09009KT 10SM -RA BKN046 OVC065 09/06 A2978 RMK AO2 SLP086 P0001 60002 T00890056 55009
PAOH 220756Z AUTO 07009KT 10SM -RA OVC055 10/04 A2978 RMK AO2 RAB01E19B38 SLP084 P0000 T01000044 401170078
PAOH 220656Z AUTO 07007KT 10SM SCT038 BKN046 OVC060 11/04 A2979 RMK AO2 SLP090 P0001 T01060039
PAOH 220556Z AUTO 10007KT 10SM BKN070 OVC110 10/04 A2981 RMK AO2 SLP095 P0001 60005 T01000044 10111 20078 56007
PAOH 220456Z AUTO 07007KT 10SM OVC070 10/05 A2981 RMK AO2 SLP096 P0001 T01000050
PAOH 220356Z AUTO 09005KT 10SM BKN080 OVC090 11/04 A2982 RMK AO2 SLP100 P0001 T01060044
PAOH 220256Z AUTO 09007KT 10SM FEW075 OVC120 10/06 A2983 RMK AO2 SLP102 P0001 60002 T01000056 56018
PAOH 220156Z AUTO 04009G14KT 10SM BKN110 10/06 A2984 RMK AO2 SLP104 P0001 T01000056
PAOH 220056Z AUTO 07010KT 10SM CLR 10/06 A2986 RMK AO2 SLP113 T01000061
PAOH 212356Z AUTO 10009KT 10SM FEW065 11/06 A2988 RMK AO2 SLP120 P0001 60006 T01060056 10117 20100 56016
PAOH 212256Z AUTO 09006KT 10SM SCT038 OVC090 11/06 A2989 RMK AO2 SLP122 P0001 T01110061
PAOH 212156Z AUTO 09011G18KT 10SM FEW038 OVC060 11/06 A2990 RMK AO2 SLP125 P0001 T01110061
PAOH 212056Z AUTO 10009G16KT 10SM BKN033 OVC040 11/06 A2993 RMK AO2 SLP136 P0001 60003 T01110056 56003
PAOH 211956Z AUTO 09009KT 10SM OVC065 11/07 A2993 RMK AO2 RAE28 SLP136 P0001 T01060067
PAOH 211856Z AUTO 12008G14KT 070V180 10SM -RA FEW029 OVC075 11/07 A2994 RMK AO2 RAB1757 SLP139 P0001 T01060067
PAOH 211756Z AUTO 08008G15KT 050V120 10SM SCT030 BKN075 OVC100 11/07 A2994 RMK AO2 SLP139 P0001 60006 T01060067 10106 20089 56012
PAOH 211656Z AUTO 10008KT 10SM OVC026 11/07 A2994 RMK AO2 SLP141 P0001 T01060072
PAOH 211556Z AUTO 08006KT 10SM OVC024 10/07 A2995 RMK AO2 SLP145 P0001 T01000072
PAOH 211456Z AUTO 08007KT 10SM BKN026 OVC036 09/08 A2997 RMK AO2 RAE17 SLP151 P0001 60003 T00940078 58009
PAOH 211436Z AUTO 07008KT 10SM BKN028 OVC034 09/08 A2998 RMK AO2 RAE17 P0001
PAOH 211256Z AUTO 07009KT 10SM -RA FEW023 BKN035 OVC049 09/08 A2999 RMK AO2 SLP157 P0001 T00940083
PAOH 211156Z AUTO 08007KT 10SM -RA FEW032 BKN040 OVC046 09/08 A3000 RMK AO2 SLP161 P0001 60006 70024 T00940083 10100 20083 58015
PAOH 211056Z AUTO 07006KT 10SM -RA BKN040 OVC050 09/08 A3003 RMK AO2 SLP170 P0001 T00940083
PAOH 210956Z AUTO 09004KT 7SM -RA SCT038 BKN047 OVC055 09/08 A3004 RMK AO2 SLP172 P0001 T00890083
PAOH 210856Z AUTO 08006KT 10SM -RA FEW039 BKN055 OVC090 09/08 A3005 RMK AO2 SLP176 P0001 60003 T00940078 58009
PAOH 210756Z AUTO 07006KT 10SM -RA FEW043 BKN065 OVC110 10/07 A3006 RMK AO2 RAB51 SLP179 P0001 T01000072 401170072
PAOH 210656Z AUTO 00000KT 10SM OVC041 09/08 A3007 RMK AO2 SLP182 P0001 T00890078
PAOH 210456Z AUTO 00000KT 10SM SCT039 SCT049 OVC090 08/07 A3007 RMK AO2 SLP184 P0001 T00780072
PAOH 210356Z AUTO 00000KT 10SM OVC037 08/07 A3008 RMK AO2 RAE04 SLP186 P0001 T00830072
PAOH 210256Z AUTO 08005KT 10SM -RA FEW037 BKN060 OVC075 08/07 A3008 RMK AO2 RAB02E26B52 SLP186 P0001 60003 T00830067 58011
PAOH 210156Z AUTO 07003KT 10SM OVC038 09/07 A3009 RMK AO2 SLP191 P0001 T00890067
PAOH 210056Z AUTO 06006KT 10SM BKN040 OVC049 09/07 A3010 RMK AO2 RAE29 SLP194 P0001 T00940067
PAOH 202356Z AUTO 06005KT 10SM -RA BKN040 OVC047 11/06 A3011 RMK AO2 RAE08B49 SLP197 P0001 60006 T01060061 10117 20083 58005
PAOH 202256Z AUTO 34004KT 10SM -RA SCT037 BKN045 OVC055 10/07 A3012 RMK AO2 RAB37 SLP201 P0001 T01000072